Silver Lady — 9HA4060 — position and weather

sailwx.info

Track history (hours):
 
Tides and Currents Weather Stations Pressure Air Temp Water Temp Dewpoint Dewpoint Depression Visibility Wind Speed Wind Dir Waves Ship Positions

Silver Lady

Last reported at 2017-Nov-16 04:20 UTC. Time now 2017-Nov-25 00:10 UTC.
Position N 08°04' W 014°38'.
Warning: this ship's position is 8 days out of date.

Length 189 m; draft 10.8 m.

Type: Ship. MMSI: 249008000.

Date/timePositionNaut miles runAvg speedWind from/ knotsBaromVisibWave heightAir tempDewpointWater temp
2017-Nov-16 04:20N 08°04' W 014°38'  
2017-Nov-12 06:33N 26°23' W 014°47'113.2
2017-Nov-12 06:30N 26°24' W 014°46'713.2
2017-Nov-12 05:59N 26°30' W 014°42'713.2
2017-Nov-12 05:29N 26°35' W 014°38'613.3
2017-Nov-12 05:01N 26°40' W 014°35'713.3
2017-Nov-12 04:31N 26°46' W 014°30'713.4
2017-Nov-12 04:01N 26°52' W 014°26'713.5
2017-Nov-12 03:31N 26°57' W 014°22'713.4
2017-Nov-12 03:01N 27°03' W 014°18'713.2
2017-Nov-12 02:31N 27°09' W 014°15'713.4
2017-Nov-12 02:01N 27°14' W 014°10'713.4
2017-Nov-12 01:30N 27°20' W 014°06'713.6
2017-Nov-12 01:01N 27°25' W 014°02'713.8
2017-Nov-12 00:30N 27°31' W 013°58'714.4
2017-Nov-12 00:00N 27°37' W 013°53'714.1
2017-Nov-11 23:30N 27°43' W 013°49'713.8
2017-Nov-11 23:00N 27°49' W 013°45'713.7
2017-Nov-11 22:30N 27°55' W 013°41'713.3
2017-Nov-11 22:00N 28°00' W 013°37'813.0
2017-Nov-11 21:24N 28°07' W 013°32'512.9
2017-Nov-11 21:00N 28°11' W 013°28'6213.2
2017-Nov-11 16:16N 29°04' W 012°50'312.8
2017-Nov-11 16:00N 29°07' W 012°48'712.8
2017-Nov-11 15:30N 29°12' W 012°44'613.0
2017-Nov-11 15:00N 29°17' W 012°40'713.0
2017-Nov-11 14:30N 29°23' W 012°36'713.1
2017-Nov-11 13:59N 29°29' W 012°32'3413.1
2017-Nov-11 11:26N 29°57' W 012°11'613.0
2017-Nov-11 10:59N 30°02' W 012°07'612.9
2017-Nov-11 10:30N 30°07' W 012°03'612.7
2017-Nov-11 10:00N 30°12' W 011°59'612.3
2017-Nov-11 09:30N 30°17' W 011°55'612.3
2017-Nov-11 09:00N 30°23' W 011°51'612.2
2017-Nov-11 08:29N 30°28' W 011°48'812.4
2017-Nov-11 07:48N 30°35' W 011°42'612.7
2017-Nov-11 07:19N 30°40' W 011°38'412.6
2017-Nov-11 06:59N 30°44' W 011°36'612.9
2017-Nov-11 06:30N 30°49' W 011°32'712.9
2017-Nov-11 05:55N 30°55' W 011°27'513.0
2017-Nov-11 05:30N 30°60' W 011°24'1312.9
2017-Nov-11 04:30N 31°11' W 011°15'612.9
2017-Nov-11 04:00N 31°16' W 011°11'713.1
2017-Nov-11 03:30N 31°22' W 011°07'612.7
2017-Nov-11 03:00N 31°27' W 011°03'713.1
2017-Nov-11 02:30N 31°32' W 010°59'37812.9
2017-Nov-09 21:14N 35°58' W 005°35'312.2
2017-Nov-09 21:00N 35°59' W 005°32'611.6
2017-Nov-09 20:30N 36°01' W 005°25'  
Track history (hours):
 
Tides and Currents Weather Stations Pressure Air Temp Water Temp Dewpoint Dewpoint Depression Visibility Wind Speed Wind Dir Waves Ship Positions

Silver Lady

Last reported at 2017-Nov-16 04:20 UTC. Time now 2017-Nov-25 00:10 UTC.
Position N 08°04' W 014°38'.
Warning: this ship's position is 8 days out of date.

Length 189 m; draft 10.8 m.

Type: Ship. MMSI: 249008000.

Date/timePositionNaut miles runAvg speedWind from/ knotsBaromVisibWave heightAir tempDewpointWater temp
2017-Nov-16 04:20N 08°04' W 014°38'  
2017-Nov-12 06:33N 26°23' W 014°47'113.2
2017-Nov-12 06:30N 26°24' W 014°46'713.2
2017-Nov-12 05:59N 26°30' W 014°42'713.2
2017-Nov-12 05:29N 26°35' W 014°38'613.3
2017-Nov-12 05:01N 26°40' W 014°35'713.3
2017-Nov-12 04:31N 26°46' W 014°30'713.4
2017-Nov-12 04:01N 26°52' W 014°26'713.5
2017-Nov-12 03:31N 26°57' W 014°22'713.4
2017-Nov-12 03:01N 27°03' W 014°18'713.2
2017-Nov-12 02:31N 27°09' W 014°15'713.4
2017-Nov-12 02:01N 27°14' W 014°10'713.4
2017-Nov-12 01:30N 27°20' W 014°06'713.6
2017-Nov-12 01:01N 27°25' W 014°02'713.8
2017-Nov-12 00:30N 27°31' W 013°58'714.4
2017-Nov-12 00:00N 27°37' W 013°53'714.1
2017-Nov-11 23:30N 27°43' W 013°49'713.8
2017-Nov-11 23:00N 27°49' W 013°45'713.7
2017-Nov-11 22:30N 27°55' W 013°41'713.3
2017-Nov-11 22:00N 28°00' W 013°37'813.0
2017-Nov-11 21:24N 28°07' W 013°32'512.9
2017-Nov-11 21:00N 28°11' W 013°28'6213.2
2017-Nov-11 16:16N 29°04' W 012°50'312.8
2017-Nov-11 16:00N 29°07' W 012°48'712.8
2017-Nov-11 15:30N 29°12' W 012°44'613.0
2017-Nov-11 15:00N 29°17' W 012°40'713.0
2017-Nov-11 14:30N 29°23' W 012°36'713.1
2017-Nov-11 13:59N 29°29' W 012°32'3413.1
2017-Nov-11 11:26N 29°57' W 012°11'613.0
2017-Nov-11 10:59N 30°02' W 012°07'612.9
2017-Nov-11 10:30N 30°07' W 012°03'612.7
2017-Nov-11 10:00N 30°12' W 011°59'612.3
2017-Nov-11 09:30N 30°17' W 011°55'612.3
2017-Nov-11 09:00N 30°23' W 011°51'612.2
2017-Nov-11 08:29N 30°28' W 011°48'812.4
2017-Nov-11 07:48N 30°35' W 011°42'612.7
2017-Nov-11 07:19N 30°40' W 011°38'412.6
2017-Nov-11 06:59N 30°44' W 011°36'612.9
2017-Nov-11 06:30N 30°49' W 011°32'712.9
2017-Nov-11 05:55N 30°55' W 011°27'513.0
2017-Nov-11 05:30N 30°60' W 011°24'1312.9
2017-Nov-11 04:30N 31°11' W 011°15'612.9
2017-Nov-11 04:00N 31°16' W 011°11'713.1
2017-Nov-11 03:30N 31°22' W 011°07'612.7
2017-Nov-11 03:00N 31°27' W 011°03'713.1
2017-Nov-11 02:30N 31°32' W 010°59'37812.9
2017-Nov-09 21:14N 35°58' W 005°35'312.2
2017-Nov-09 21:00N 35°59' W 005°32'611.6
2017-Nov-09 20:30N 36°01' W 005°25'  

Dump ship's entire track history